Time;durP1;ratioP1;P1;durP2;ratioP2;P2;SDS_P1;SDS_P2;PMS_P1;PMS_P2;Temp;Humidity;BMP_temperature;BMP_pressure;BME280_temperature;BME280_humidity;BME280_pressure;Samples;Min_cycle;Max_cycle;Signal;HPM_P1;HPM_P2
2023/09/25 03:32:35;;;;;;;2.25;2.00;;;7.40;99.90;;;;;;5287178;22;20378;-65
2023/09/25 03:35:03;;;;;;;2.90;2.13;;;7.30;99.90;;;;;;5001903;28;20214;-65
2023/09/25 03:37:30;;;;;;;4.28;2.22;;;7.30;99.90;;;;;;5007429;28;20222;-65
2023/09/25 03:39:57;;;;;;;2.47;2.10;;;7.30;99.90;;;;;;5007201;28;20211;-65
2023/09/25 03:42:24;;;;;;;3.35;1.92;;;7.30;99.90;;;;;;5000460;28;20580;-65
2023/09/25 03:44:51;;;;;;;2.45;1.90;;;7.30;99.90;;;;;;4997628;28;20222;-65
2023/09/25 03:47:19;;;;;;;3.05;2.35;;;7.20;99.90;;;;;;4987885;28;20203;-65
2023/09/25 03:49:47;;;;;;;3.80;2.20;;;7.30;99.90;;;;;;4986185;28;20218;-65
2023/09/25 03:52:14;;;;;;;2.92;2.08;;;7.20;99.90;;;;;;4987105;28;20227;-65
2023/09/25 03:54:41;;;;;;;4.95;2.50;;;7.20;99.90;;;;;;4986569;28;20206;-65
2023/09/25 03:57:08;;;;;;;2.67;2.25;;;7.20;99.90;;;;;;4985981;28;20251;-65
2023/09/25 03:59:34;;;;;;;2.70;2.10;;;7.20;99.90;;;;;;4988175;28;20215;-65
2023/09/25 04:02:01;;;;;;;2.70;2.20;;;7.20;99.90;;;;;;4984805;28;20243;-65
2023/09/25 04:04:28;;;;;;;2.10;1.70;;;7.20;99.90;;;;;;4987823;28;20203;-65
2023/09/25 04:06:56;;;;;;;3.45;2.17;;;7.20;99.90;;;;;;4985208;28;20207;-65
2023/09/25 04:09:23;;;;;;;2.97;2.33;;;7.10;99.90;;;;;;4988115;28;20210;-65
2023/09/25 04:11:49;;;;;;;2.42;1.80;;;7.10;99.90;;;;;;4990646;28;20564;-65
2023/09/25 04:14:17;;;;;;;1.83;1.60;;;7.10;99.90;;;;;;4989932;28;20218;-65
2023/09/25 04:16:45;;;;;;;2.55;1.75;;;7.10;99.90;;;;;;4989644;28;20199;-65
2023/09/25 04:19:12;;;;;;;2.55;2.13;;;7.10;99.90;;;;;;4993237;28;20208;-65
2023/09/25 04:21:39;;;;;;;3.00;2.20;;;7.00;99.90;;;;;;4990294;28;20249;-65
2023/09/25 04:24:10;;;;;;;2.13;1.90;;;7.00;99.90;;;;;;4987993;28;20208;-66
2023/09/25 04:26:39;;;;;;;3.15;2.67;;;7.00;99.90;;;;;;4990886;28;20203;-65
2023/09/25 04:29:09;;;;;;;4.50;2.20;;;7.00;99.90;;;;;;4990997;28;20207;-66
2023/09/25 04:31:36;;;;;;;2.42;2.10;;;7.00;99.90;;;;;;4986744;28;20650;-65
2023/09/25 04:34:03;;;;;;;2.35;1.85;;;7.00;99.90;;;;;;4995615;28;20207;-65
2023/09/25 04:36:30;;;;;;;1.90;1.80;;;7.00;99.90;;;;;;4995365;28;20203;-65
2023/09/25 04:38:57;;;;;;;2.75;2.42;;;7.00;99.90;;;;;;4985294;28;20275;-66
2023/09/25 04:41:25;;;;;;;2.65;2.28;;;7.00;99.90;;;;;;4987948;28;20223;-65
2023/09/25 04:43:52;;;;;;;2.33;1.70;;;7.00;99.90;;;;;;4985617;28;20215;-65
2023/09/25 04:46:19;;;;;;;2.22;1.92;;;7.00;99.90;;;;;;4987647;28;20648;-65
2023/09/25 04:48:46;;;;;;;4.00;2.17;;;7.00;99.90;;;;;;4987175;28;20203;-65
2023/09/25 04:51:14;;;;;;;7.30;2.10;;;7.00;99.90;;;;;;4986640;28;20259;-65
2023/09/25 04:53:42;;;;;;;2.42;1.55;;;6.90;99.90;;;;;;4987352;28;20210;-65
2023/09/25 04:56:10;;;;;;;2.63;1.98;;;7.00;99.90;;;;;;4986258;28;20203;-65
2023/09/25 04:58:38;;;;;;;2.42;2.22;;;6.90;99.90;;;;;;4988265;28;20274;-65
2023/09/25 05:01:04;;;;;;;3.65;2.55;;;6.90;99.90;;;;;;4985420;28;20239;-65
2023/09/25 05:03:31;;;;;;;2.65;1.80;;;6.90;99.90;;;;;;4988121;28;20258;-65
2023/09/25 05:05:58;;;;;;;2.10;1.90;;;6.90;99.90;;;;;;4985769;28;20214;-65
2023/09/25 05:08:25;;;;;;;3.42;2.20;;;6.90;99.90;;;;;;4982994;28;20203;-66
2023/09/25 05:10:52;;;;;;;3.85;1.65;;;6.90;99.90;;;;;;4986639;28;20222;-65
2023/09/25 05:13:19;;;;;;;2.00;1.80;;;6.90;99.90;;;;;;4987561;28;20215;-65
2023/09/25 05:15:47;;;;;;;4.30;2.88;;;6.90;99.90;;;;;;4987618;28;20203;-65
2023/09/25 05:18:13;;;;;;;2.97;1.98;;;6.80;99.90;;;;;;4986931;28;20220;-65
2023/09/25 05:20:40;;;;;;;5.72;2.00;;;6.80;99.90;;;;;;4988482;28;20227;-65
2023/09/25 05:23:07;;;;;;;2.85;2.28;;;6.80;99.90;;;;;;4986105;28;20291;-66
2023/09/25 05:25:33;;;;;;;2.50;1.90;;;6.80;99.90;;;;;;4988287;28;20207;-66
2023/09/25 05:28:00;;;;;;;1.98;1.77;;;6.90;99.90;;;;;;4986057;28;20203;-65
2023/09/25 05:30:27;;;;;;;2.90;2.05;;;6.90;99.90;;;;;;4988496;28;20203;-65
2023/09/25 05:32:55;;;;;;;4.05;2.38;;;6.90;99.90;;;;;;4986697;28;20226;-66
2023/09/25 05:35:22;;;;;;;2.60;2.25;;;6.90;99.90;;;;;;4987816;28;20590;-65
2023/09/25 05:37:49;;;;;;;3.38;2.03;;;6.90;99.90;;;;;;4987690;28;20230;-65
2023/09/25 05:40:16;;;;;;;3.40;2.08;;;7.00;99.90;;;;;;4987367;28;20294;-65
2023/09/25 05:42:45;;;;;;;2.30;2.00;;;7.00;99.90;;;;;;4988420;28;20203;-65
2023/09/25 05:45:12;;;;;;;3.15;2.67;;;7.00;99.90;;;;;;5001975;28;20204;-65
2023/09/25 05:47:40;;;;;;;2.75;2.00;;;7.00;99.90;;;;;;5004247;28;20293;-66
2023/09/25 05:50:09;;;;;;;2.83;1.88;;;7.10;99.90;;;;;;4995013;28;20208;-65
2023/09/25 05:52:36;;;;;;;2.67;2.20;;;7.10;99.90;;;;;;4988763;28;20223;-66
2023/09/25 05:55:03;;;;;;;3.20;2.40;;;7.10;99.90;;;;;;4986137;28;20203;-65
2023/09/25 05:57:29;;;;;;;1.77;1.63;;;7.20;99.90;;;;;;4988728;28;20203;-65
2023/09/25 05:59:56;;;;;;;3.63;1.92;;;7.20;99.90;;;;;;4987150;28;20218;-66
2023/09/25 06:02:23;;;;;;;2.22;2.03;;;7.20;99.90;;;;;;4988527;28;20226;-66
2023/09/25 06:04:49;;;;;;;2.13;1.67;;;7.30;99.90;;;;;;4987683;28;20207;-65
2023/09/25 06:07:18;;;;;;;2.95;2.28;;;7.60;99.90;;;;;;4987873;28;20204;-65
2023/09/25 06:09:45;;;;;;;3.22;2.45;;;8.00;99.90;;;;;;4988933;28;20311;-65
2023/09/25 06:12:13;;;;;;;2.40;1.98;;;8.30;99.90;;;;;;4986788;28;20227;-66
2023/09/25 06:14:40;;;;;;;3.42;2.10;;;8.50;99.90;;;;;;4988598;28;20292;-66
2023/09/25 06:17:09;;;;;;;3.28;2.35;;;8.70;99.90;;;;;;4987217;28;20245;-66
2023/09/25 06:19:36;;;;;;;2.00;1.77;;;8.80;99.90;;;;;;4989041;28;20227;-66
2023/09/25 06:22:02;;;;;;;3.55;2.58;;;9.00;99.90;;;;;;4986924;28;20703;-66
2023/09/25 06:24:31;;;;;;;2.75;2.25;;;9.20;99.90;;;;;;4988462;28;20206;-66
2023/09/25 06:26:59;;;;;;;2.33;2.13;;;9.20;99.90;;;;;;4987258;28;20254;-66
2023/09/25 06:29:26;;;;;;;4.00;2.58;;;9.30;99.90;;;;;;4982800;28;20201;-66
2023/09/25 06:31:53;;;;;;;3.35;2.50;;;9.50;99.90;;;;;;4988239;28;20306;-65
2023/09/25 06:34:19;;;;;;;3.75;2.30;;;9.60;99.90;;;;;;4988038;28;20211;-65
2023/09/25 06:36:46;;;;;;;3.28;2.08;;;9.70;99.90;;;;;;4989217;28;20399;-65
2023/09/25 06:39:13;;;;;;;3.20;1.95;;;9.80;99.90;;;;;;4987413;28;20226;-66
2023/09/25 06:41:43;;;;;;;3.00;2.42;;;9.70;99.90;;;;;;4989196;28;20222;-65
2023/09/25 06:44:09;;;;;;;2.55;2.05;;;9.60;99.90;;;;;;4987019;28;20587;-65
2023/09/25 06:46:37;;;;;;;2.67;2.42;;;9.50;99.90;;;;;;4989321;28;20213;-65
2023/09/25 06:49:05;;;;;;;2.75;2.30;;;9.40;99.90;;;;;;4987703;28;20230;-66
2023/09/25 06:51:32;;;;;;;3.35;2.53;;;9.40;99.90;;;;;;4989398;28;20317;-65
2023/09/25 06:53:58;;;;;;;2.42;2.22;;;9.40;99.90;;;;;;4987951;28;20707;-65
2023/09/25 06:56:25;;;;;;;3.78;2.28;;;9.50;99.90;;;;;;4982221;28;20214;-65
2023/09/25 06:58:53;;;;;;;2.85;2.17;;;9.60;99.90;;;;;;4989229;28;20277;-65
2023/09/25 07:01:21;;;;;;;2.70;2.35;;;9.70;99.90;;;;;;4988544;28;20228;-65
2023/09/25 07:03:48;;;;;;;2.42;2.22;;;9.80;99.90;;;;;;4989005;28;20324;-65
2023/09/25 07:06:14;;;;;;;2.80;2.50;;;10.00;99.90;;;;;;4988271;28;20214;-65
2023/09/25 07:08:42;;;;;;;4.72;2.35;;;10.20;99.90;;;;;;4989617;28;20203;-66
2023/09/25 07:11:08;;;;;;;3.35;2.83;;;10.30;99.90;;;;;;4988365;28;20226;-65
2023/09/25 07:13:35;;;;;;;3.00;2.20;;;10.50;99.90;;;;;;4989357;28;20200;-65
2023/09/25 07:16:10;;;;;;;3.55;2.45;;;10.70;99.90;;;;;;4988476;28;20671;-66
2023/09/25 07:18:37;;;;;;;5.93;3.15;;;10.90;99.90;;;;;;4989952;28;20250;-65
2023/09/25 07:21:05;;;;;;;3.72;2.53;;;11.10;99.90;;;;;;4988534;28;20314;-65
2023/09/25 07:23:32;;;;;;;6.63;3.40;;;11.30;99.90;;;;;;4989397;28;20209;-66
2023/09/25 07:26:08;;;;;;;2.95;2.63;;;11.60;99.90;;;;;;4988899;28;20264;-66
2023/09/25 07:28:36;;;;;;;3.35;3.00;;;11.90;99.90;;;;;;4983972;28;20211;-65
2023/09/25 07:31:02;;;;;;;3.60;2.33;;;12.10;99.90;;;;;;4988679;28;20234;-66
2023/09/25 07:33:32;;;;;;;3.28;2.78;;;12.40;99.90;;;;;;4989706;28;20204;-66
2023/09/25 07:35:59;;;;;;;3.08;2.40;;;12.60;99.90;;;;;;4989509;28;20211;-66
2023/09/25 07:38:26;;;;;;;5.22;2.70;;;12.90;99.90;;;;;;4982729;28;20222;-66
2023/09/25 07:40:53;;;;;;;2.72;2.22;;;13.20;99.90;;;;;;4990041;28;20229;-66
2023/09/25 07:43:20;;;;;;;5.32;3.08;;;13.30;99.90;;;;;;4989219;28;20294;-66
2023/09/25 07:45:49;;;;;;;3.17;2.63;;;13.50;99.90;;;;;;4989882;28;20217;-66
2023/09/25 07:48:16;;;;;;;2.67;2.47;;;13.70;99.90;;;;;;4989431;28;20509;-66
2023/09/25 07:50:46;;;;;;;4.40;2.73;;;13.80;99.90;;;;;;4990355;28;20593;-66
2023/09/25 07:53:13;;;;;;;3.00;2.57;;;14.10;99.90;;;;;;4989397;28;20523;-66
2023/09/25 07:55:40;;;;;;;2.83;2.57;;;14.20;99.90;;;;;;4990022;28;20462;-66
2023/09/25 07:58:07;;;;;;;4.10;2.70;;;14.40;99.90;;;;;;4989542;28;20472;-65
2023/09/25 08:00:37;;;;;;;2.97;2.70;;;14.60;99.90;;;;;;4990364;28;20490;-66
2023/09/25 08:03:05;;;;;;;4.37;2.67;;;14.80;99.90;;;;;;4989828;28;21003;-66
2023/09/25 08:05:32;;;;;;;2.63;2.20;;;14.90;99.90;;;;;;4990288;28;20462;-65
2023/09/25 08:08:00;;;;;;;5.03;2.73;;;15.10;99.90;;;;;;4993721;28;20828;-66
2023/09/25 08:10:27;;;;;;;2.97;2.37;;;15.20;99.90;;;;;;4986683;28;20462;-66
2023/09/25 08:12:54;;;;;;;3.00;2.33;;;15.30;99.90;;;;;;4994207;28;20834;-66
2023/09/25 08:15:21;;;;;;;2.40;2.20;;;15.50;99.90;;;;;;4993307;28;20475;-66
2023/09/25 08:17:48;;;;;;;2.67;2.23;;;15.70;99.90;;;;;;4994287;28;20547;-66
2023/09/25 08:20:20;;;;;;;3.00;2.43;;;15.80;99.90;;;;;;4993678;28;20482;-65
2023/09/25 08:22:47;;;;;;;3.13;2.43;;;16.00;99.90;;;;;;4994206;28;20466;-66
2023/09/25 08:25:16;;;;;;;4.67;2.00;;;16.10;99.90;;;;;;4975483;28;20470;-65
2023/09/25 08:27:43;;;;;;;6.63;2.43;;;16.30;99.90;;;;;;4974831;28;20468;-66
2023/09/25 08:30:11;;;;;;;3.57;2.37;;;16.40;99.90;;;;;;4974613;28;20485;-66
2023/09/25 08:32:39;;;;;;;2.33;2.10;;;16.50;99.90;;;;;;4974771;28;20962;-66
2023/09/25 08:35:09;;;;;;;4.10;2.60;;;16.60;99.90;;;;;;4974396;28;20496;-66
2023/09/25 08:37:36;;;;;;;2.40;2.13;;;16.80;99.90;;;;;;4974926;28;20909;-66
2023/09/25 08:40:04;;;;;;;3.30;2.33;;;16.90;99.90;;;;;;4974766;28;20583;-65
2023/09/25 08:42:32;;;;;;;2.83;2.40;;;17.10;99.90;;;;;;4974872;28;20831;-65
2023/09/25 08:45:02;;;;;;;3.40;2.30;;;17.20;99.90;;;;;;4974653;28;20474;-65
2023/09/25 08:47:31;;;;;;;2.20;2.00;;;17.20;99.90;;;;;;4974938;28;21078;-65
2023/09/25 08:49:58;;;;;;;2.63;2.30;;;17.30;99.90;;;;;;4974993;28;20469;-65
2023/09/25 08:52:25;;;;;;;2.70;2.10;;;17.40;99.90;;;;;;4974691;28;21016;-66
2023/09/25 08:54:52;;;;;;;2.90;1.90;;;17.60;99.90;;;;;;4974663;28;20470;-66
2023/09/25 08:57:20;;;;;;;2.63;1.50;;;17.70;99.90;;;;;;4975004;28;20469;-65
2023/09/25 08:59:50;;;;;;;2.03;1.83;;;17.80;99.90;;;;;;4975034;28;20871;-65
2023/09/25 09:02:18;;;;;;;2.90;2.07;;;17.90;99.90;;;;;;4975306;28;20488;-66
2023/09/25 09:04:45;;;;;;;3.30;2.63;;;18.00;99.90;;;;;;4974643;28;20470;-66
2023/09/25 09:07:14;;;;;;;2.30;2.10;;;18.10;99.90;;;;;;4975315;28;20467;-65
2023/09/25 09:09:43;;;;;;;3.63;2.20;;;18.30;99.90;;;;;;4975306;28;20466;-66
2023/09/25 09:12:10;;;;;;;2.30;1.93;;;18.30;99.90;;;;;;4975470;28;20490;-66
2023/09/25 09:14:38;;;;;;;2.40;1.80;;;18.40;99.90;;;;;;4974029;28;20478;-65
2023/09/25 09:17:08;;;;;;;2.73;1.87;;;18.50;99.90;;;;;;4983415;28;20478;-65
2023/09/25 09:19:37;;;;;;;3.37;1.70;;;18.60;99.90;;;;;;4974744;28;20494;-66
2023/09/25 09:22:05;;;;;;;1.80;1.40;;;18.70;99.90;;;;;;4975535;28;20863;-66
2023/09/25 09:24:33;;;;;;;2.90;1.93;;;18.70;99.90;;;;;;4981538;28;20553;-66
2023/09/25 09:27:01;;;;;;;2.80;2.07;;;18.80;99.90;;;;;;4983451;28;20525;-65
2023/09/25 09:29:27;;;;;;;1.90;1.67;;;18.90;99.90;;;;;;4975145;28;20502;-66
2023/09/25 09:31:55;;;;;;;2.90;1.80;;;19.00;99.90;;;;;;4975252;28;20494;-66
2023/09/25 09:34:25;;;;;;;2.00;1.80;;;19.10;99.90;;;;;;4975514;28;20474;-66
2023/09/25 09:36:53;;;;;;;2.90;2.13;;;19.20;99.90;;;;;;4975270;28;20510;-66
2023/09/25 09:39:21;;;;;;;2.10;1.80;;;19.30;99.90;;;;;;4976193;28;20495;-66
2023/09/25 09:41:50;;;;;;;2.73;2.07;;;19.40;99.90;;;;;;4975511;28;20487;-65
2023/09/25 09:44:17;;;;;;;2.13;1.93;;;19.70;99.90;;;;;;4975488;28;20470;-66
2023/09/25 09:46:46;;;;;;;2.43;2.10;;;19.80;99.90;;;;;;4978011;28;20454;-66
2023/09/25 09:49:15;;;;;;;2.40;2.20;;;20.00;99.90;;;;;;4990422;28;20458;-66
2023/09/25 09:51:45;;;;;;;2.73;1.90;;;20.10;99.90;;;;;;4975444;28;20483;-66
2023/09/25 09:54:13;;;;;;;2.03;1.47;;;20.20;99.90;;;;;;4976119;28;20956;-66
2023/09/25 09:56:40;;;;;;;2.00;1.63;;;20.40;99.90;;;;;;4975639;28;20838;-66
2023/09/25 09:59:07;;;;;;;3.23;2.30;;;20.60;99.90;;;;;;4982375;28;20490;-66
2023/09/25 10:01:35;;;;;;;2.53;1.90;;;20.70;99.90;;;;;;4981895;28;20609;-66
2023/09/25 10:04:03;;;;;;;3.83;2.43;;;20.70;99.90;;;;;;4975457;28;20486;-66
2023/09/25 10:06:30;;;;;;;1.90;1.60;;;20.80;99.90;;;;;;4975780;28;20459;-66
2023/09/25 10:09:02;;;;;;;3.30;2.27;;;20.90;99.90;;;;;;4975774;28;20616;-66
2023/09/25 10:11:31;;;;;;;3.70;2.20;;;21.00;99.90;;;;;;4975454;28;20511;-66
2023/09/25 10:14:03;;;;;;;3.00;1.67;;;21.10;99.90;;;;;;4975153;28;20857;-66
2023/09/25 10:16:31;;;;;;;2.30;2.10;;;21.20;99.90;;;;;;4975372;28;20494;-66
2023/09/25 10:18:58;;;;;;;4.90;2.37;;;21.40;99.90;;;;;;4975866;28;20505;-66
2023/09/25 10:21:24;;;;;;;3.33;2.10;;;21.50;99.90;;;;;;4976895;28;20487;-66
2023/09/25 10:23:54;;;;;;;2.37;2.13;;;21.70;99.90;;;;;;4975518;28;20462;-66
2023/09/25 10:26:24;;;;;;;2.63;2.03;;;21.70;99.90;;;;;;4977113;28;20580;-66
2023/09/25 10:28:58;;;;;;;3.20;2.13;;;21.70;99.90;;;;;;4975239;28;20476;-66
2023/09/25 10:31:29;;;;;;;2.40;2.20;;;21.80;99.90;;;;;;4974839;28;20681;-66
2023/09/25 10:33:57;;;;;;;3.23;2.33;;;21.80;99.90;;;;;;4975438;28;20853;-66
2023/09/25 10:36:37;;;;;;;2.70;2.20;;;21.90;99.90;;;;;;4977081;28;20548;-66
2023/09/25 10:39:07;;;;;;;2.57;1.90;;;22.00;99.90;;;;;;4976630;28;20537;-66
2023/09/25 10:41:36;;;;;;;2.57;2.37;;;22.00;99.90;;;;;;4982552;28;21310;-66
2023/09/25 10:44:03;;;;;;;3.00;2.33;;;22.10;99.90;;;;;;4975775;28;20471;-67
2023/09/25 10:46:30;;;;;;;2.00;1.67;;;22.10;99.90;;;;;;4975285;28;20464;-66
2023/09/25 10:48:57;;;;;;;3.10;2.13;;;22.30;99.90;;;;;;4976162;28;20470;-66
2023/09/25 10:51:24;;;;;;;2.60;1.87;;;22.50;99.90;;;;;;4975967;28;20485;-66
2023/09/25 10:53:51;;;;;;;3.20;2.30;;;22.50;99.90;;;;;;4975737;28;20455;-67
2023/09/25 10:56:18;;;;;;;2.20;2.00;;;22.60;99.90;;;;;;4976762;28;20463;-66
2023/09/25 10:58:50;;;;;;;2.73;1.90;;;22.60;99.90;;;;;;4975980;28;20952;-66
2023/09/25 11:01:23;;;;;;;2.50;2.10;;;22.70;99.90;;;;;;4976904;28;21070;-65
2023/09/25 11:03:49;;;;;;;2.27;1.83;;;22.70;99.90;;;;;;4976112;28;20467;-66
2023/09/25 11:06:16;;;;;;;1.50;1.40;;;22.60;99.90;;;;;;4977350;28;20459;-66
2023/09/25 11:08:44;;;;;;;2.17;1.87;;;22.70;99.90;;;;;;4977146;28;20827;-65
2023/09/25 11:11:14;;;;;;;2.30;1.90;;;22.80;99.90;;;;;;4977185;28;20471;-66
2023/09/25 11:13:40;;;;;;;1.87;1.77;;;22.90;99.90;;;;;;4975921;28;20987;-65
2023/09/25 11:16:08;;;;;;;2.10;1.90;;;23.10;99.90;;;;;;4977079;28;20463;-66
2023/09/25 11:18:35;;;;;;;2.67;1.90;;;23.20;99.90;;;;;;4977259;28;20849;-66
2023/09/25 11:21:02;;;;;;;1.73;1.63;;;23.30;99.90;;;;;;4976644;28;20495;-66
2023/09/25 11:23:28;;;;;;;2.03;1.70;;;23.30;99.90;;;;;;4981642;28;20461;-66
2023/09/25 11:25:55;;;;;;;2.60;2.00;;;23.40;99.90;;;;;;4980600;28;20463;-66
2023/09/25 11:28:25;;;;;;;2.20;1.37;;;23.40;99.90;;;;;;4978727;28;20458;-66
2023/09/25 11:30:52;;;;;;;5.57;1.70;;;23.40;99.90;;;;;;4976456;28;20479;-66
2023/09/25 11:33:21;;;;;;;1.57;1.47;;;23.40;99.90;;;;;;4979465;28;20482;-66
2023/09/25 11:35:49;;;;;;;2.20;2.00;;;23.50;99.90;;;;;;4976190;28;20475;-66
2023/09/25 11:38:18;;;;;;;2.80;1.80;;;23.70;99.90;;;;;;4978891;28;20478;-66
2023/09/25 11:40:45;;;;;;;2.13;1.80;;;23.90;99.90;;;;;;4976846;28;20503;-66
2023/09/25 11:43:13;;;;;;;2.30;1.93;;;23.90;99.90;;;;;;4982168;28;20466;-66
2023/09/25 11:45:41;;;;;;;2.70;2.13;;;24.00;99.90;;;;;;4980972;28;21206;-67
2023/09/25 11:48:09;;;;;;;2.00;1.60;;;24.10;99.90;;;;;;4981702;28;20467;-66
2023/09/25 11:50:39;;;;;;;2.17;1.90;;;24.10;99.90;;;;;;4981094;28;20532;-66
2023/09/25 11:53:06;;;;;;;2.43;2.23;;;24.10;99.90;;;;;;4981307;28;20466;-66
2023/09/25 11:55:33;;;;;;;2.63;2.27;;;24.20;99.90;;;;;;4981645;28;20474;-66
2023/09/25 11:58:00;;;;;;;2.10;1.70;;;24.20;99.90;;;;;;4980494;28;20461;-65
2023/09/25 12:00:27;;;;;;;2.30;2.00;;;24.20;99.90;;;;;;4983173;28;20493;-66
2023/09/25 12:02:54;;;;;;;1.80;1.70;;;24.20;99.90;;;;;;4980568;28;20473;-67
2023/09/25 12:05:21;;;;;;;1.70;1.50;;;24.10;99.90;;;;;;4982671;28;20533;-66
2023/09/25 12:07:49;;;;;;;1.60;1.43;;;24.10;99.90;;;;;;4980506;28;20470;-66
2023/09/25 12:10:17;;;;;;;1.93;1.70;;;24.10;99.90;;;;;;4982971;28;20463;-66
2023/09/25 12:12:45;;;;;;;2.40;1.83;;;24.10;99.90;;;;;;4980600;28;20844;-66
2023/09/25 12:15:13;;;;;;;2.27;1.90;;;24.20;99.90;;;;;;4982441;28;21165;-66
2023/09/25 12:17:40;;;;;;;2.00;1.80;;;24.10;99.90;;;;;;4981586;28;20473;-67
2023/09/25 12:20:11;;;;;;;2.70;2.20;;;24.10;99.90;;;;;;4984016;28;20868;-66
2023/09/25 12:22:40;;;;;;;2.13;1.50;;;24.20;99.90;;;;;;4989348;28;20519;-66
2023/09/25 12:25:11;;;;;;;2.43;1.73;;;24.30;99.90;;;;;;4988865;28;20474;-66
2023/09/25 12:27:38;;;;;;;2.43;1.80;;;24.30;99.90;;;;;;4994208;28;20465;-66
2023/09/25 12:30:07;;;;;;;2.50;1.97;;;24.40;99.90;;;;;;5000842;28;20467;-66
2023/09/25 12:32:34;;;;;;;2.30;1.73;;;24.40;99.90;;;;;;4989250;28;20486;-66
2023/09/25 12:35:00;;;;;;;2.97;2.20;;;24.50;99.90;;;;;;4980670;28;20467;-66
2023/09/25 12:37:28;;;;;;;1.80;1.70;;;24.40;99.90;;;;;;4983294;28;20517;-66
2023/09/25 12:39:55;;;;;;;1.63;1.43;;;24.30;99.90;;;;;;4981066;28;20519;-66
2023/09/25 12:42:23;;;;;;;2.90;1.90;;;24.10;99.90;;;;;;4983596;28;20486;-66
2023/09/25 12:44:50;;;;;;;1.60;1.50;;;24.10;99.90;;;;;;4980479;28;20478;-66
2023/09/25 12:47:18;;;;;;;3.73;1.90;;;24.10;99.90;;;;;;4983117;28;20467;-67
2023/09/25 12:49:45;;;;;;;2.17;1.53;;;24.10;99.90;;;;;;4981643;28;20455;-66
2023/09/25 12:52:12;;;;;;;2.00;1.60;;;24.00;99.90;;;;;;4981786;28;20568;-66
2023/09/25 12:54:39;;;;;;;1.83;1.60;;;24.00;99.90;;;;;;4981761;28;20993;-67
2023/09/25 12:57:06;;;;;;;2.90;1.73;;;24.00;99.90;;;;;;4981555;28;20486;-67
2023/09/25 12:59:34;;;;;;;2.07;1.43;;;24.00;99.90;;;;;;4983252;28;20462;-65
2023/09/25 13:02:01;;;;;;;1.83;1.57;;;24.10;99.90;;;;;;4981253;28;20565;-66
2023/09/25 13:04:28;;;;;;;1.77;1.50;;;24.10;99.90;;;;;;4983470;28;20518;-66
2023/09/25 13:06:55;;;;;;;2.10;1.60;;;24.10;99.90;;;;;;4980985;28;20840;-66
2023/09/25 13:09:23;;;;;;;2.40;1.77;;;24.00;99.90;;;;;;4983824;28;20830;-66
2023/09/25 13:11:49;;;;;;;2.13;1.93;;;24.10;99.90;;;;;;4977217;28;20562;-66
2023/09/25 13:14:17;;;;;;;1.93;1.60;;;24.00;99.90;;;;;;4982956;28;20463;-66
2023/09/25 13:16:45;;;;;;;1.73;1.63;;;24.00;99.90;;;;;;4978632;28;20460;-66
2023/09/25 13:19:12;;;;;;;1.47;1.37;;;23.90;99.90;;;;;;4982342;28;20474;-67
2023/09/25 13:21:39;;;;;;;2.43;2.10;;;23.90;99.90;;;;;;4979306;28;20487;-67
2023/09/25 13:24:06;;;;;;;2.47;1.50;;;23.90;99.90;;;;;;4981495;28;20467;-67
2023/09/25 13:26:33;;;;;;;3.80;1.80;;;23.90;99.90;;;;;;4980436;28;20464;-65
2023/09/25 13:28:59;;;;;;;3.27;1.73;;;23.80;99.90;;;;;;4981059;28;20473;-66
2023/09/25 13:31:26;;;;;;;2.67;1.77;;;23.90;99.90;;;;;;4978249;28;20485;-65
2023/09/25 13:33:55;;;;;;;1.57;1.40;;;24.00;99.90;;;;;;4980220;28;20463;-65
2023/09/25 13:36:21;;;;;;;2.30;1.60;;;24.10;99.90;;;;;;4982714;28;20947;-65
2023/09/25 13:38:48;;;;;;;1.43;1.30;;;24.10;99.90;;;;;;4980818;28;20470;-65
2023/09/25 13:41:15;;;;;;;1.73;1.30;;;24.20;99.90;;;;;;4987925;28;21021;-65
2023/09/25 13:43:42;;;;;;;2.07;1.37;;;24.20;99.90;;;;;;4988849;28;20476;-65
2023/09/25 13:46:09;;;;;;;1.80;1.70;;;24.10;99.90;;;;;;4991912;28;20886;-65
2023/09/25 13:48:37;;;;;;;2.47;1.77;;;24.10;99.90;;;;;;4989638;28;20477;-65
2023/09/25 13:51:06;;;;;;;1.97;1.60;;;24.10;99.90;;;;;;4993904;28;20481;-65
2023/09/25 13:53:34;;;;;;;1.57;1.47;;;24.10;99.90;;;;;;4984180;28;20858;-65
2023/09/25 13:56:01;;;;;;;2.47;1.80;;;24.10;99.90;;;;;;4981010;28;20844;-65
2023/09/25 13:58:27;;;;;;;2.00;1.80;;;24.10;99.90;;;;;;4984760;28;20470;-65
2023/09/25 14:00:55;;;;;;;1.90;1.70;;;24.10;99.90;;;;;;4981078;28;20988;-65
2023/09/25 14:03:23;;;;;;;2.13;1.60;;;24.00;99.90;;;;;;4984060;28;20494;-66
2023/09/25 14:05:51;;;;;;;2.20;1.60;;;24.00;99.90;;;;;;4981643;28;20851;-65
2023/09/25 14:08:19;;;;;;;2.70;1.70;;;24.00;99.90;;;;;;4983826;28;20475;-65
2023/09/25 14:10:47;;;;;;;1.90;1.50;;;24.00;99.90;;;;;;4977854;28;20479;-65
2023/09/25 14:13:15;;;;;;;2.10;1.70;;;23.90;99.90;;;;;;4983026;28;20466;-65
2023/09/25 14:15:42;;;;;;;1.50;1.40;;;23.90;99.90;;;;;;4980509;28;20463;-65
2023/09/25 14:18:09;;;;;;;1.90;1.57;;;23.90;99.90;;;;;;4984621;28;20502;-65
2023/09/25 14:20:36;;;;;;;1.47;1.37;;;23.90;99.90;;;;;;4980327;28;20860;-65
2023/09/25 14:23:03;;;;;;;2.43;1.63;;;23.90;99.90;;;;;;4981726;28;20526;-65
2023/09/25 14:25:31;;;;;;;1.90;1.77;;;23.90;99.90;;;;;;4984040;28;20459;-65
2023/09/25 14:27:58;;;;;;;2.80;1.70;;;23.90;99.90;;;;;;4981537;28;20910;-65
2023/09/25 14:30:25;;;;;;;1.93;1.43;;;23.90;99.90;;;;;;4978819;28;20521;-65
2023/09/25 14:32:55;;;;;;;1.63;1.27;;;23.80;99.90;;;;;;4984543;28;20532;-66
2023/09/25 14:35:21;;;;;;;2.83;1.90;;;23.80;99.90;;;;;;4988002;28;21037;-68
2023/09/25 14:37:48;;;;;;;2.30;2.10;;;23.90;99.90;;;;;;4987612;28;20517;-65
2023/09/25 14:40:16;;;;;;;1.57;1.40;;;23.80;99.90;;;;;;4985034;28;20487;-65
2023/09/25 14:42:46;;;;;;;2.10;1.47;;;23.80;99.90;;;;;;4982927;28;20469;-66
2023/09/25 14:45:15;;;;;;;3.00;1.47;;;23.80;99.90;;;;;;4982933;28;20459;-66
2023/09/25 14:47:42;;;;;;;3.07;1.77;;;23.70;99.90;;;;;;4981633;28;20698;-66
2023/09/25 14:50:10;;;;;;;2.13;1.70;;;23.60;99.90;;;;;;4983075;28;20463;-66
2023/09/25 14:52:37;;;;;;;2.67;1.93;;;23.50;99.90;;;;;;4986144;28;20576;-65
2023/09/25 14:55:06;;;;;;;1.63;1.53;;;23.50;99.90;;;;;;4996406;28;20467;-66
2023/09/25 14:57:33;;;;;;;1.70;1.53;;;23.40;99.90;;;;;;4993960;28;20464;-65
2023/09/25 15:00:02;;;;;;;1.60;1.50;;;23.30;99.90;;;;;;4990887;28;20495;-65
2023/09/25 15:02:33;;;;;;;1.50;1.40;;;23.30;99.90;;;;;;4996952;28;20481;-65
2023/09/25 15:05:01;;;;;;;1.73;1.57;;;23.30;99.90;;;;;;4995457;28;20585;-65
2023/09/25 15:07:34;;;;;;;2.37;1.73;;;23.30;99.90;;;;;;4986990;28;20485;-65
2023/09/25 15:10:02;;;;;;;1.60;1.20;;;23.30;99.90;;;;;;4982396;28;20462;-66
2023/09/25 15:12:29;;;;;;;2.00;1.33;;;23.20;99.90;;;;;;4993277;28;20504;-66
2023/09/25 15:14:56;;;;;;;2.00;1.77;;;23.20;99.90;;;;;;4994652;28;20461;-67
2023/09/25 15:17:25;;;;;;;1.60;1.50;;;23.20;99.90;;;;;;4997985;28;20465;-66
2023/09/25 15:19:51;;;;;;;2.00;1.53;;;23.20;99.90;;;;;;4999889;28;20485;-66
2023/09/25 15:22:18;;;;;;;2.13;1.73;;;23.20;99.90;;;;;;4998638;28;20514;-67
2023/09/25 15:24:45;;;;;;;1.90;1.70;;;23.20;99.90;;;;;;5001925;28;20474;-66
2023/09/25 15:27:11;;;;;;;2.37;1.60;;;23.10;99.90;;;;;;4998574;28;20470;-67
2023/09/25 15:29:41;;;;;;;1.50;1.40;;;23.10;99.90;;;;;;5004119;28;20463;-67
2023/09/25 15:32:10;;;;;;;2.00;1.53;;;23.10;99.90;;;;;;4987647;28;21015;-67
2023/09/25 15:34:40;;;;;;;1.93;1.47;;;23.00;99.90;;;;;;4989608;28;20466;-67
2023/09/25 15:37:07;;;;;;;1.53;1.43;;;23.00;99.90;;;;;;4999876;28;20525;-67
2023/09/25 15:39:33;;;;;;;1.80;1.37;;;22.90;99.90;;;;;;5004475;28;20477;-67
2023/09/25 15:42:00;;;;;;;3.20;1.67;;;22.70;99.90;;;;;;4997476;28;20489;-66
2023/09/25 15:44:27;;;;;;;1.83;1.23;;;22.60;99.90;;;;;;5004109;28;20852;-67
2023/09/25 15:46:54;;;;;;;2.23;1.70;;;22.60;99.90;;;;;;4990786;28;20837;-67
2023/09/25 15:49:20;;;;;;;2.57;1.60;;;22.60;99.90;;;;;;4999746;28;20473;-67
2023/09/25 15:51:49;;;;;;;2.27;1.73;;;22.50;99.90;;;;;;5003733;28;20480;-67
2023/09/25 15:54:15;;;;;;;2.03;1.40;;;22.50;99.90;;;;;;4997930;28;20545;-67
2023/09/25 15:56:42;;;;;;;2.37;2.03;;;22.40;99.90;;;;;;4990128;28;20492;-67
2023/09/25 15:59:10;;;;;;;1.47;1.30;;;22.30;99.90;;;;;;4991810;28;20469;-67
2023/09/25 16:01:36;;;;;;;2.30;1.60;;;22.30;99.90;;;;;;4988784;28;20858;-67
2023/09/25 16:04:03;;;;;;;1.73;1.60;;;22.20;99.90;;;;;;4998854;28;20479;-66
2023/09/25 16:06:30;;;;;;;1.93;1.77;;;22.10;99.90;;;;;;4989753;28;20475;-67
2023/09/25 16:08:59;;;;;;;1.80;1.60;;;21.90;99.90;;;;;;4987449;28;20830;-67
2023/09/25 16:11:26;;;;;;;2.03;1.80;;;21.80;99.90;;;;;;4983434;28;20572;-67
2023/09/25 16:13:52;;;;;;;1.60;1.40;;;21.70;99.90;;;;;;4996458;28;20457;-67
2023/09/25 16:16:19;;;;;;;1.53;1.43;;;21.60;99.90;;;;;;5004409;28;20841;-67
2023/09/25 16:18:46;;;;;;;1.40;1.20;;;21.60;99.90;;;;;;4999546;28;20757;-67
2023/09/25 16:21:13;;;;;;;1.90;1.77;;;21.50;99.90;;;;;;4987061;28;20499;-68
2023/09/25 16:23:40;;;;;;;2.20;1.70;;;21.40;99.90;;;;;;4989435;28;21143;-68